PWSweather.com
Personal Weather Stations
Station Observations
WESTON01
WestonSuperMareGB BS22 8RT

WestonSuperMareGB BS22 8RT

Lat: 51.351508, Lon: -2.933373

Elevation: 15

Station Type: Fine Offset WH1080

http://www.westonweather.co.uk

High Low Average
Temperature 88.4°F31.3°C 55.3°F12.9°C 72.7°F22.6°C
Dew Point 60.6°F15.9°C 50.0°F10.0°C 55.6°F13.1°C
Winds 7.5 mph 12.1 kmh Calm Calm 3.0 mph SW4.8 kmh SW
Wind Gusts 10.4 mph16.7 kmh -- 5.0 mph8.0 kmh
Humidity 89% 38% 58%
Pressure 30.27 in1025.1 mb 30.15 in1021.0 mb -
Precipitation 0.00 in0.0 mm - -
Hour Temp Dew Point Humidity Winds Wind Gusts Pressure Precip Precip Rate Daily Precip Total
12:00 AM 59.5°F15.3°C 50.4°F10.2°C 72% 2.7 mph WSW4.3 kmh WSW 5.4 mph8.7 kmh 30.27 in1025.1 mb 0.00 in0.0 mm 0.00 in0.0 mm 0.00 in0.0 mm
12:05 AM 59.5°F15.3°C 50.4°F10.2°C 72% 3.4 mph WSW5.5 kmh WSW 5.4 mph8.7 kmh 30.27 in1025.1 mb 0.00 in0.0 mm 0.00 in0.0 mm 0.00 in0.0 mm
12:10 AM 59.3°F15.2°C 50.6°F10.3°C 73% 2.9 mph WSW4.7 kmh WSW 4.5 mph7.2 kmh 30.27 in1025.1 mb 0.00 in0.0 mm 0.00 in0.0 mm 0.00 in0.0 mm
12:15 AM 59.3°F15.2°C 50.6°F10.3°C 73% 1.9 mph WSW3.1 kmh WSW 4.5 mph7.2 kmh 30.27 in1025.1 mb 0.00 in0.0 mm 0.00 in0.0 mm 0.00 in0.0 mm
12:20 AM 58.9°F14.9°C 50.3°F10.2°C 73% 0.7 mph SSW1.1 kmh SSW 2.7 mph4.3 kmh 30.27 in1025.1 mb 0.00 in0.0 mm 0.00 in0.0 mm 0.00 in0.0 mm
12:25 AM 58.7°F14.8°C 50.1°F10.1°C 73% 0.6 mph SW1.0 kmh SW 2.7 mph4.3 kmh 30.27 in1025.1 mb 0.00 in0.0 mm 0.00 in0.0 mm 0.00 in0.0 mm
12:30 AM 58.7°F14.8°C 50.1°F10.1°C 73% 1.6 mph WSW2.6 kmh WSW 4.8 mph7.7 kmh 30.27 in1025.1 mb 0.00 in0.0 mm 0.00 in0.0 mm 0.00 in0.0 mm
12:35 AM 58.5°F14.7°C 50.3°F10.2°C 74% 2.8 mph WSW4.5 kmh WSW 4.8 mph7.7 kmh 30.27 in1025.1 mb 0.00 in0.0 mm 0.00 in0.0 mm 0.00 in0.0 mm
12:40 AM 58.5°F14.7°C 50.6°F10.3°C 75% 2.2 mph WSW3.5 kmh WSW 4.5 mph7.2 kmh 30.27 in1025.1 mb 0.00 in0.0 mm 0.00 in0.0 mm 0.00 in0.0 mm
12:45 AM 58.5°F14.7°C 50.6°F10.3°C 75% 0.6 mph WSW1.0 kmh WSW 3.0 mph4.8 kmh 30.27 in1025.1 mb 0.00 in0.0 mm 0.00 in0.0 mm 0.00 in0.0 mm
12:50 AM 58.4°F14.7°C 50.8°F10.4°C 76% 0.7 mph WSW1.1 kmh WSW 3.9 mph6.3 kmh 30.27 in1025.1 mb 0.00 in0.0 mm 0.00 in0.0 mm 0.00 in0.0 mm
12:55 AM 58.4°F14.7°C 50.8°F10.4°C 76% 1.2 mph WSW1.9 kmh WSW 3.9 mph6.3 kmh 30.27 in1025.1 mb 0.00 in0.0 mm 0.00 in0.0 mm 0.00 in0.0 mm
01:00 AM 58.2°F14.6°C 51.0°F10.6°C 77% 1.8 mph WSW2.9 kmh WSW 3.9 mph6.3 kmh 30.27 in1025.1 mb 0.00 in0.0 mm 0.00 in0.0 mm 0.00 in0.0 mm
01:05 AM 58.2°F14.6°C 51.4°F10.8°C 78% 2.5 mph WSW4.0 kmh WSW 4.8 mph7.7 kmh 30.27 in1025.1 mb 0.00 in0.0 mm 0.00 in0.0 mm 0.00 in0.0 mm
01:10 AM 58.2°F14.6°C 51.4°F10.8°C 78% 1.6 mph WSW2.6 kmh WSW 4.8 mph7.7 kmh 30.27 in1025.1 mb 0.00 in0.0 mm 0.00 in0.0 mm 0.00 in0.0 mm
01:15 AM 58.2°F14.6°C 51.4°F10.8°C 78% 0.5 mph WSW0.8 kmh WSW 3.3 mph5.3 kmh 30.27 in1025.1 mb 0.00 in0.0 mm 0.00 in0.0 mm 0.00 in0.0 mm
01:20 AM 58.2°F14.6°C 51.7°F10.9°C 79% 0.7 mph SW1.1 kmh SW 3.3 mph5.3 kmh 30.27 in1025.1 mb 0.00 in0.0 mm 0.00 in0.0 mm 0.00 in0.0 mm
01:25 AM 58.0°F14.4°C 51.5°F10.8°C 79% 1.4 mph SW2.3 kmh SW 3.3 mph5.3 kmh 30.27 in1025.1 mb 0.00 in0.0 mm 0.00 in0.0 mm 0.00 in0.0 mm
01:30 AM 58.0°F14.4°C 51.9°F11.1°C 80% 1.0 mph SW1.6 kmh SW 2.7 mph4.3 kmh 30.27 in1025.1 mb 0.00 in0.0 mm 0.00 in0.0 mm 0.00 in0.0 mm
01:35 AM 58.0°F14.4°C 51.9°F11.1°C 80% 1.7 mph WSW2.7 kmh WSW 4.2 mph6.8 kmh 30.27 in1025.1 mb 0.00 in0.0 mm 0.00 in0.0 mm 0.00 in0.0 mm
01:40 AM 58.0°F14.4°C 52.2°F11.2°C 81% 2.8 mph WSW4.5 kmh WSW 4.8 mph7.7 kmh 30.27 in1025.1 mb 0.00 in0.0 mm 0.00 in0.0 mm 0.00 in0.0 mm
01:45 AM 57.8°F14.3°C 52.0°F11.1°C 81% 4.1 mph WSW6.6 kmh WSW 5.7 mph9.2 kmh 30.27 in1025.1 mb 0.00 in0.0 mm 0.00 in0.0 mm 0.00 in0.0 mm
01:50 AM 57.8°F14.3°C 52.0°F11.1°C 81% 3.6 mph WSW5.8 kmh WSW 6.2 mph10.0 kmh 30.27 in1025.1 mb 0.00 in0.0 mm 0.00 in0.0 mm 0.00 in0.0 mm
01:55 AM 57.7°F14.3°C 52.2°F11.2°C 82% 2.4 mph SW3.9 kmh SW 6.2 mph10.0 kmh 30.27 in1025.1 mb 0.00 in0.0 mm 0.00 in0.0 mm 0.00 in0.0 mm
02:00 AM 57.7°F14.3°C 52.2°F11.2°C 82% 1.6 mph S2.6 kmh S 4.8 mph7.7 kmh 30.27 in1025.1 mb 0.00 in0.0 mm 0.00 in0.0 mm 0.00 in0.0 mm
02:05 AM 57.7°F14.3°C 52.2°F11.2°C 82% 1.8 mph SW2.9 kmh SW 3.9 mph6.3 kmh 30.27 in1025.1 mb 0.00 in0.0 mm 0.00 in0.0 mm 0.00 in0.0 mm
02:10 AM 57.5°F14.2°C 52.0°F11.1°C 82% 2.2 mph SW3.5 kmh SW 3.9 mph6.3 kmh 30.27 in1025.1 mb 0.00 in0.0 mm 0.00 in0.0 mm 0.00 in0.0 mm
02:15 AM 57.5°F14.2°C 52.0°F11.1°C 82% 1.9 mph SW3.1 kmh SW 3.9 mph6.3 kmh 30.27 in1025.1 mb 0.00 in0.0 mm 0.00 in0.0 mm 0.00 in0.0 mm
02:20 AM 57.3°F14.1°C 52.2°F11.2°C 83% 2.5 mph SW4.0 kmh SW 3.9 mph6.3 kmh 30.27 in1025.1 mb 0.00 in0.0 mm 0.00 in0.0 mm 0.00 in0.0 mm
02:25 AM 57.3°F14.1°C 52.2°F11.2°C 83% 2.6 mph SW4.2 kmh SW 4.5 mph7.2 kmh 30.27 in1025.1 mb 0.00 in0.0 mm 0.00 in0.0 mm 0.00 in0.0 mm
02:30 AM 57.3°F14.1°C 52.2°F11.2°C 83% 2.2 mph SSW3.5 kmh SSW 4.5 mph7.2 kmh 30.27 in1025.1 mb 0.00 in0.0 mm 0.00 in0.0 mm 0.00 in0.0 mm
02:35 AM 57.1°F13.9°C 52.0°F11.1°C 83% 1.9 mph SSW3.1 kmh SSW 3.9 mph6.3 kmh 30.27 in1025.1 mb 0.00 in0.0 mm 0.00 in0.0 mm 0.00 in0.0 mm
02:40 AM 57.1°F13.9°C 52.0°F11.1°C 83% 1.8 mph SW2.9 kmh SW 3.9 mph6.3 kmh 30.27 in1025.1 mb 0.00 in0.0 mm 0.00 in0.0 mm 0.00 in0.0 mm
02:45 AM 57.1°F13.9°C 52.0°F11.1°C 83% 1.4 mph SW2.3 kmh SW 4.5 mph7.2 kmh 30.27 in1025.1 mb 0.00 in0.0 mm 0.00 in0.0 mm 0.00 in0.0 mm
02:50 AM 56.9°F13.8°C 51.8°F11.0°C 83% 1.2 mph SSW1.9 kmh SSW 4.5 mph7.2 kmh 30.27 in1025.1 mb 0.00 in0.0 mm 0.00 in0.0 mm 0.00 in0.0 mm
02:55 AM 56.8°F13.8°C 51.6°F10.9°C 83% 1.4 mph SSW2.3 kmh SSW 3.6 mph5.8 kmh 30.27 in1025.1 mb 0.00 in0.0 mm 0.00 in0.0 mm 0.00 in0.0 mm
03:00 AM 56.8°F13.8°C 51.6°F10.9°C 83% 1.4 mph S2.3 kmh S 3.6 mph5.8 kmh 30.27 in1025.1 mb 0.00 in0.0 mm 0.00 in0.0 mm 0.00 in0.0 mm
03:05 AM 56.6°F13.7°C 51.8°F11.0°C 84% 1.2 mph SW1.9 kmh SW 3.0 mph4.8 kmh 30.27 in1025.1 mb 0.00 in0.0 mm 0.00 in0.0 mm 0.00 in0.0 mm
03:10 AM 56.6°F13.7°C 51.8°F11.0°C 84% 1.9 mph WSW3.1 kmh WSW 4.8 mph7.7 kmh 30.24 in1024.0 mb 0.00 in0.0 mm 0.00 in0.0 mm 0.00 in0.0 mm
03:15 AM 56.6°F13.7°C 51.8°F11.0°C 84% 2.0 mph WSW3.2 kmh WSW 4.8 mph7.7 kmh 30.24 in1024.0 mb 0.00 in0.0 mm 0.00 in0.0 mm 0.00 in0.0 mm
03:20 AM 56.4°F13.6°C 51.6°F10.9°C 84% 1.2 mph SW1.9 kmh SW 4.8 mph7.7 kmh 30.24 in1024.0 mb 0.00 in0.0 mm 0.00 in0.0 mm 0.00 in0.0 mm
03:25 AM 56.4°F13.6°C 51.6°F10.9°C 84% 1.1 mph W1.8 kmh W 3.9 mph6.3 kmh 30.24 in1024.0 mb 0.00 in0.0 mm 0.00 in0.0 mm 0.00 in0.0 mm
03:30 AM 56.2°F13.4°C 51.4°F10.8°C 84% 1.1 mph W1.8 kmh W 3.9 mph6.3 kmh 30.24 in1024.0 mb 0.00 in0.0 mm 0.00 in0.0 mm 0.00 in0.0 mm
03:35 AM 56.0°F13.3°C 51.3°F10.7°C 84% Calm Calm -- 30.24 in1024.0 mb 0.00 in0.0 mm 0.00 in0.0 mm 0.00 in0.0 mm
03:40 AM 55.8°F13.2°C 51.1°F10.6°C 84% Calm Calm -- 30.24 in1024.0 mb 0.00 in0.0 mm 0.00 in0.0 mm 0.00 in0.0 mm
03:45 AM 55.7°F13.2°C 50.9°F10.5°C 84% Calm Calm -- 30.24 in1024.0 mb 0.00 in0.0 mm 0.00 in0.0 mm 0.00 in0.0 mm
03:50 AM 55.5°F13.1°C 50.7°F10.4°C 84% Calm Calm -- 30.24 in1024.0 mb 0.00 in0.0 mm 0.00 in0.0 mm 0.00 in0.0 mm
03:55 AM 55.5°F13.1°C 50.7°F10.4°C 84% 0.5 mph WNW0.8 kmh WNW 2.1 mph3.4 kmh 30.24 in1024.0 mb 0.00 in0.0 mm 0.00 in0.0 mm 0.00 in0.0 mm
04:00 AM 55.5°F13.1°C 51.1°F10.6°C 85% 0.9 mph W1.4 kmh W 2.1 mph3.4 kmh 30.24 in1024.0 mb 0.00 in0.0 mm 0.00 in0.0 mm 0.00 in0.0 mm
04:05 AM 55.3°F12.9°C 50.9°F10.5°C 85% 0.7 mph WSW1.1 kmh WSW 1.8 mph2.9 kmh 30.24 in1024.0 mb 0.00 in0.0 mm 0.00 in0.0 mm 0.00 in0.0 mm
04:10 AM 55.5°F13.1°C 51.1°F10.6°C 85% 1.0 mph W1.6 kmh W 3.3 mph5.3 kmh 30.24 in1024.0 mb 0.00 in0.0 mm 0.00 in0.0 mm 0.00 in0.0 mm
04:15 AM 55.5°F13.1°C 51.1°F10.6°C 85% 1.6 mph W2.6 kmh W 3.3 mph5.3 kmh 30.24 in1024.0 mb 0.00 in0.0 mm 0.00 in0.0 mm 0.00 in0.0 mm
04:20 AM 55.5°F13.1°C 51.4°F10.8°C 86% 1.4 mph W2.3 kmh W 3.3 mph5.3 kmh 30.24 in1024.0 mb 0.00 in0.0 mm 0.00 in0.0 mm 0.00 in0.0 mm
04:25 AM 55.5°F13.1°C 51.4°F10.8°C 86% 0.4 mph WSW0.6 kmh WSW 2.1 mph3.4 kmh 30.24 in1024.0 mb 0.00 in0.0 mm 0.00 in0.0 mm 0.00 in0.0 mm
04:30 AM 55.5°F13.1°C 51.4°F10.8°C 86% 0.1 mph WSW0.2 kmh WSW 2.1 mph3.4 kmh 30.24 in1024.0 mb 0.00 in0.0 mm 0.00 in0.0 mm 0.00 in0.0 mm
04:35 AM 55.5°F13.1°C 51.4°F10.8°C 86% Calm Calm -- 30.24 in1024.0 mb 0.00 in0.0 mm 0.00 in0.0 mm 0.00 in0.0 mm
04:40 AM 55.5°F13.1°C 51.4°F10.8°C 86% 0.4 mph W0.6 kmh W 2.7 mph4.3 kmh 30.24 in1024.0 mb 0.00 in0.0 mm 0.00 in0.0 mm 0.00 in0.0 mm
04:45 AM 55.7°F13.2°C 51.9°F11.1°C 87% 0.6 mph W1.0 kmh W 2.7 mph4.3 kmh 30.24 in1024.0 mb 0.00 in0.0 mm 0.00 in0.0 mm 0.00 in0.0 mm
04:50 AM 55.7°F13.2°C 51.9°F11.1°C 87% 0.1 mph WSW0.2 kmh WSW 2.1 mph3.4 kmh 30.24 in1024.0 mb 0.00 in0.0 mm 0.00 in0.0 mm 0.00 in0.0 mm
04:55 AM 56.0°F13.3°C 52.2°F11.2°C 87% 0.5 mph W0.8 kmh W 2.1 mph3.4 kmh 30.24 in1024.0 mb 0.00 in0.0 mm 0.00 in0.0 mm 0.00 in0.0 mm
05:00 AM 56.4°F13.6°C 52.9°F11.6°C 88% 0.5 mph W0.8 kmh W 2.1 mph3.4 kmh 30.24 in1024.0 mb 0.00 in0.0 mm 0.00 in0.0 mm 0.00 in0.0 mm
05:05 AM 56.9°F13.8°C 53.4°F11.9°C 88% Calm Calm -- 30.24 in1024.0 mb 0.00 in0.0 mm 0.00 in0.0 mm 0.00 in0.0 mm
05:10 AM 57.5°F14.2°C 54.3°F12.4°C 89% 0.1 mph WSW0.2 kmh WSW 2.1 mph3.4 kmh 30.24 in1024.0 mb 0.00 in0.0 mm 0.00 in0.0 mm 0.00 in0.0 mm
05:15 AM 57.8°F14.3°C 54.3°F12.4°C 88% 0.2 mph WSW0.3 kmh WSW 2.1 mph3.4 kmh 30.24 in1024.0 mb 0.00 in0.0 mm 0.00 in0.0 mm 0.00 in0.0 mm
05:20 AM 58.9°F14.9°C 55.4°F13.0°C 88% Calm Calm -- 30.24 in1024.0 mb 0.00 in0.0 mm 0.00 in0.0 mm 0.00 in0.0 mm
05:25 AM 59.1°F15.1°C 55.5°F13.1°C 88% 0.1 mph W0.2 kmh W 1.2 mph1.9 kmh 30.24 in1024.0 mb 0.00 in0.0 mm 0.00 in0.0 mm 0.00 in0.0 mm
05:30 AM 60.2°F15.7°C 56.3°F13.5°C 87% 0.1 mph W0.2 kmh W 1.2 mph1.9 kmh 30.24 in1024.0 mb 0.00 in0.0 mm 0.00 in0.0 mm 0.00 in0.0 mm
05:35 AM 60.9°F16.1°C 56.7°F13.7°C 86% 0.7 mph WSW1.1 kmh WSW 3.6 mph5.8 kmh 30.24 in1024.0 mb 0.00 in0.0 mm 0.00 in0.0 mm 0.00 in0.0 mm
05:40 AM 61.4°F16.3°C 56.9°F13.8°C 85% 1.4 mph W2.3 kmh W 3.9 mph6.3 kmh 30.27 in1025.1 mb 0.00 in0.0 mm 0.00 in0.0 mm 0.00 in0.0 mm
05:45 AM 62.0°F16.7°C 56.7°F13.7°C 83% 1.6 mph W2.6 kmh W 3.9 mph6.3 kmh 30.27 in1025.1 mb 0.00 in0.0 mm 0.00 in0.0 mm 0.00 in0.0 mm
05:50 AM 62.3°F16.8°C 57.1°F13.9°C 83% 2.1 mph WSW3.4 kmh WSW 3.6 mph5.8 kmh 30.27 in1025.1 mb 0.00 in0.0 mm 0.00 in0.0 mm 0.00 in0.0 mm
05:55 AM 62.9°F17.2°C 57.3°F14.1°C 82% 2.6 mph WSW4.2 kmh WSW 5.4 mph8.7 kmh 30.27 in1025.1 mb 0.00 in0.0 mm 0.00 in0.0 mm 0.00 in0.0 mm
06:00 AM 63.2°F17.3°C 57.0°F13.9°C 80% 2.3 mph WSW3.7 kmh WSW 5.4 mph8.7 kmh 30.27 in1025.1 mb 0.00 in0.0 mm 0.00 in0.0 mm 0.00 in0.0 mm
06:05 AM 63.8°F17.7°C 57.1°F13.9°C 79% 0.9 mph WSW1.4 kmh WSW 5.1 mph8.2 kmh 30.27 in1025.1 mb 0.00 in0.0 mm 0.00 in0.0 mm 0.00 in0.0 mm
06:10 AM 64.3°F17.9°C 57.7°F14.3°C 79% 1.0 mph W1.6 kmh W 3.6 mph5.8 kmh 30.27 in1025.1 mb 0.00 in0.0 mm 0.00 in0.0 mm 0.00 in0.0 mm
06:15 AM 64.7°F18.2°C 57.3°F14.1°C 77% 2.0 mph W3.2 kmh W 3.9 mph6.3 kmh 30.27 in1025.1 mb 0.00 in0.0 mm 0.00 in0.0 mm 0.00 in0.0 mm
06:20 AM 65.2°F18.4°C 57.1°F13.9°C 75% 2.3 mph WSW3.7 kmh WSW 3.9 mph6.3 kmh 30.27 in1025.1 mb 0.00 in0.0 mm 0.00 in0.0 mm 0.00 in0.0 mm
06:25 AM 65.8°F18.8°C 57.2°F14.0°C 74% 1.8 mph WSW2.9 kmh WSW 3.9 mph6.3 kmh 30.27 in1025.1 mb 0.00 in0.0 mm 0.00 in0.0 mm 0.00 in0.0 mm
06:30 AM 65.9°F18.8°C 57.0°F13.9°C 73% 0.9 mph W1.4 kmh W 3.6 mph5.8 kmh 30.27 in1025.1 mb 0.00 in0.0 mm 0.00 in0.0 mm 0.00 in0.0 mm
06:35 AM 66.1°F18.9°C 56.8°F13.8°C 72% 1.6 mph WSW2.6 kmh WSW 3.6 mph5.8 kmh 30.27 in1025.1 mb 0.00 in0.0 mm 0.00 in0.0 mm 0.00 in0.0 mm
06:40 AM 66.5°F19.2°C 57.2°F14.0°C 72% 2.7 mph W4.3 kmh W 4.5 mph7.2 kmh 30.27 in1025.1 mb 0.00 in0.0 mm 0.00 in0.0 mm 0.00 in0.0 mm
06:45 AM 67.0°F19.4°C 56.9°F13.8°C 70% 2.8 mph W4.5 kmh W 4.5 mph7.2 kmh 30.27 in1025.1 mb 0.00 in0.0 mm 0.00 in0.0 mm 0.00 in0.0 mm
06:50 AM 67.0°F19.4°C 56.9°F13.8°C 70% 1.5 mph W2.4 kmh W 3.3 mph5.3 kmh 30.27 in1025.1 mb 0.00 in0.0 mm 0.00 in0.0 mm 0.00 in0.0 mm
06:55 AM 67.4°F19.7°C 56.8°F13.8°C 69% 1.2 mph W1.9 kmh W 2.7 mph4.3 kmh 30.27 in1025.1 mb 0.00 in0.0 mm 0.00 in0.0 mm 0.00 in0.0 mm
07:00 AM 67.6°F19.8°C 57.0°F13.9°C 69% 1.0 mph W1.6 kmh W 3.0 mph4.8 kmh 30.27 in1025.1 mb 0.00 in0.0 mm 0.00 in0.0 mm 0.00 in0.0 mm
07:05 AM 67.6°F19.8°C 57.0°F13.9°C 69% 0.9 mph WSW1.4 kmh WSW 3.0 mph4.8 kmh 30.27 in1025.1 mb 0.00 in0.0 mm 0.00 in0.0 mm 0.00 in0.0 mm
07:10 AM 68.4°F20.2°C 57.5°F14.2°C 68% 1.4 mph WSW2.3 kmh WSW 3.3 mph5.3 kmh 30.27 in1025.1 mb 0.00 in0.0 mm 0.00 in0.0 mm 0.00 in0.0 mm
07:15 AM 68.4°F20.2°C 57.1°F13.9°C 67% 2.1 mph WSW3.4 kmh WSW 3.9 mph6.3 kmh 30.27 in1025.1 mb 0.00 in0.0 mm 0.00 in0.0 mm 0.00 in0.0 mm
07:20 AM 68.6°F20.3°C 57.2°F14.0°C 67% 1.9 mph WSW3.1 kmh WSW 3.9 mph6.3 kmh 30.27 in1025.1 mb 0.00 in0.0 mm 0.00 in0.0 mm 0.00 in0.0 mm
07:25 AM 68.6°F20.3°C 56.8°F13.8°C 66% 2.1 mph SW3.4 kmh SW 3.6 mph5.8 kmh 30.27 in1025.1 mb 0.00 in0.0 mm 0.00 in0.0 mm 0.00 in0.0 mm
07:30 AM 68.8°F20.4°C 57.0°F13.9°C 66% 1.7 mph SW2.7 kmh SW 3.6 mph5.8 kmh 30.27 in1025.1 mb 0.00 in0.0 mm 0.00 in0.0 mm 0.00 in0.0 mm
07:35 AM 68.8°F20.4°C 56.6°F13.7°C 65% 1.0 mph SW1.6 kmh SW 3.6 mph5.8 kmh 30.27 in1025.1 mb 0.00 in0.0 mm 0.00 in0.0 mm 0.00 in0.0 mm
07:40 AM 69.0°F20.6°C 56.7°F13.7°C 65% 1.1 mph SW1.8 kmh SW 3.6 mph5.8 kmh 30.27 in1025.1 mb 0.00 in0.0 mm 0.00 in0.0 mm 0.00 in0.0 mm
07:45 AM 69.0°F20.6°C 56.7°F13.7°C 65% 1.2 mph W1.9 kmh W 4.8 mph7.7 kmh 30.27 in1025.1 mb 0.00 in0.0 mm 0.00 in0.0 mm 0.00 in0.0 mm
07:50 AM 69.0°F20.6°C 56.3°F13.5°C 64% 1.8 mph WSW2.9 kmh WSW 4.8 mph7.7 kmh 30.27 in1025.1 mb 0.00 in0.0 mm 0.00 in0.0 mm 0.00 in0.0 mm
07:55 AM 69.0°F20.6°C 56.3°F13.5°C 64% 2.2 mph WSW3.5 kmh WSW 3.6 mph5.8 kmh 30.27 in1025.1 mb 0.00 in0.0 mm 0.00 in0.0 mm 0.00 in0.0 mm
08:00 AM 69.3°F20.7°C 56.6°F13.7°C 64% 2.0 mph WSW3.2 kmh WSW 3.6 mph5.8 kmh 30.27 in1025.1 mb 0.00 in0.0 mm 0.00 in0.0 mm 0.00 in0.0 mm
08:05 AM 69.5°F20.8°C 56.8°F13.8°C 64% 1.4 mph S2.3 kmh S 3.3 mph5.3 kmh 30.27 in1025.1 mb 0.00 in0.0 mm 0.00 in0.0 mm 0.00 in0.0 mm
08:10 AM 69.9°F21.1°C 56.7°F13.7°C 63% 1.2 mph SSW1.9 kmh SSW 3.3 mph5.3 kmh 30.27 in1025.1 mb 0.00 in0.0 mm 0.00 in0.0 mm 0.00 in0.0 mm
08:15 AM 70.3°F21.3°C 57.1°F13.9°C 63% 0.7 mph SW1.1 kmh SW 2.1 mph3.4 kmh 30.27 in1025.1 mb 0.00 in0.0 mm 0.00 in0.0 mm 0.00 in0.0 mm
08:20 AM 71.0°F21.7°C 57.3°F14.1°C 62% 1.3 mph N2.1 kmh N 3.0 mph4.8 kmh 30.27 in1025.1 mb 0.00 in0.0 mm 0.00 in0.0 mm 0.00 in0.0 mm
08:25 AM 72.1°F22.3°C 58.3°F14.6°C 62% 1.5 mph NNE2.4 kmh NNE 3.3 mph5.3 kmh 30.27 in1025.1 mb 0.00 in0.0 mm 0.00 in0.0 mm 0.00 in0.0 mm
08:30 AM 72.8°F22.7°C 58.5°F14.7°C 61% 1.5 mph NW2.4 kmh NW 3.9 mph6.3 kmh 30.27 in1025.1 mb 0.00 in0.0 mm 0.00 in0.0 mm 0.00 in0.0 mm
08:35 AM 73.3°F22.9°C 58.6°F14.8°C 60% 2.1 mph WNW3.4 kmh WNW 3.9 mph6.3 kmh 30.27 in1025.1 mb 0.00 in0.0 mm 0.00 in0.0 mm 0.00 in0.0 mm
08:40 AM 74.0°F23.3°C 58.3°F14.6°C 58% 2.4 mph W3.9 kmh W 5.1 mph8.2 kmh 30.27 in1025.1 mb 0.00 in0.0 mm 0.00 in0.0 mm 0.00 in0.0 mm
08:45 AM 74.4°F23.6°C 58.6°F14.8°C 58% 2.1 mph W3.4 kmh W 5.1 mph8.2 kmh 30.27 in1025.1 mb 0.00 in0.0 mm 0.00 in0.0 mm 0.00 in0.0 mm
08:50 AM 74.4°F23.6°C 58.6°F14.8°C 58% 1.5 mph WSW2.4 kmh WSW 4.2 mph6.8 kmh 30.27 in1025.1 mb 0.00 in0.0 mm 0.00 in0.0 mm 0.00 in0.0 mm
08:55 AM 75.7°F24.3°C 59.3°F15.2°C 57% 1.2 mph SW1.9 kmh SW 4.2 mph6.8 kmh 30.27 in1025.1 mb 0.00 in0.0 mm 0.00 in0.0 mm 0.00 in0.0 mm
09:00 AM 76.4°F24.7°C 59.5°F15.3°C 56% 1.5 mph WSW2.4 kmh WSW 3.0 mph4.8 kmh 30.27 in1025.1 mb 0.00 in0.0 mm 0.00 in0.0 mm 0.00 in0.0 mm
09:05 AM 76.9°F24.9°C 59.5°F15.3°C 55% 1.7 mph SW2.7 kmh SW 3.3 mph5.3 kmh 30.27 in1025.1 mb 0.00 in0.0 mm 0.00 in0.0 mm 0.00 in0.0 mm
09:10 AM 77.3°F25.2°C 59.8°F15.4°C 55% 1.5 mph SSE2.4 kmh SSE 3.3 mph5.3 kmh 30.27 in1025.1 mb 0.00 in0.0 mm 0.00 in0.0 mm 0.00 in0.0 mm
09:15 AM 77.3°F25.2°C 59.8°F15.4°C 55% 2.1 mph SW3.4 kmh SW 5.1 mph8.2 kmh 30.27 in1025.1 mb 0.00 in0.0 mm 0.00 in0.0 mm 0.00 in0.0 mm
09:20 AM 78.2°F25.7°C 59.6°F15.3°C 53% 1.8 mph SW2.9 kmh SW 5.1 mph8.2 kmh 30.27 in1025.1 mb 0.00 in0.0 mm 0.00 in0.0 mm 0.00 in0.0 mm
09:25 AM 78.2°F25.7°C 59.6°F15.3°C 53% 1.3 mph WSW2.1 kmh WSW 5.1 mph8.2 kmh 30.27 in1025.1 mb 0.00 in0.0 mm 0.00 in0.0 mm 0.00 in0.0 mm
09:30 AM 78.3°F25.7°C 59.3°F15.2°C 52% 2.0 mph SW3.2 kmh SW 5.1 mph8.2 kmh 30.27 in1025.1 mb 0.00 in0.0 mm 0.00 in0.0 mm 0.00 in0.0 mm
09:35 AM 78.5°F25.8°C 58.9°F14.9°C 51% 2.6 mph SW4.2 kmh SW 5.1 mph8.2 kmh 30.27 in1025.1 mb 0.00 in0.0 mm 0.00 in0.0 mm 0.00 in0.0 mm
09:40 AM 78.7°F25.9°C 60.1°F15.6°C 53% 2.7 mph WSW4.3 kmh WSW 4.8 mph7.7 kmh 30.27 in1025.1 mb 0.00 in0.0 mm 0.00 in0.0 mm 0.00 in0.0 mm
09:45 AM 78.7°F25.9°C 60.1°F15.6°C 53% 2.6 mph WSW4.2 kmh WSW 4.8 mph7.7 kmh 30.27 in1025.1 mb 0.00 in0.0 mm 0.00 in0.0 mm 0.00 in0.0 mm
09:50 AM 79.3°F26.3°C 60.6°F15.9°C 53% 2.8 mph WSW4.5 kmh WSW 4.2 mph6.8 kmh 30.27 in1025.1 mb 0.00 in0.0 mm 0.00 in0.0 mm 0.00 in0.0 mm
09:55 AM 79.4°F26.3°C 60.3°F15.7°C 52% 2.8 mph W4.5 kmh W 4.5 mph7.2 kmh 30.27 in1025.1 mb 0.00 in0.0 mm 0.00 in0.0 mm 0.00 in0.0 mm
10:00 AM 79.4°F26.3°C 59.7°F15.4°C 51% 3.2 mph WSW5.1 kmh WSW 7.4 mph11.9 kmh 30.27 in1025.1 mb 0.00 in0.0 mm 0.00 in0.0 mm 0.00 in0.0 mm
10:05 AM 79.4°F26.3°C 59.7°F15.4°C 51% 3.3 mph SW5.3 kmh SW 7.4 mph11.9 kmh 30.27 in1025.1 mb 0.00 in0.0 mm 0.00 in0.0 mm 0.00 in0.0 mm
10:10 AM 79.6°F26.4°C 59.9°F15.5°C 51% 2.2 mph WSW3.5 kmh WSW 4.2 mph6.8 kmh 30.24 in1024.0 mb 0.00 in0.0 mm 0.00 in0.0 mm 0.00 in0.0 mm
10:15 AM 79.6°F26.4°C 59.3°F15.2°C 50% 2.6 mph SW4.2 kmh SW 5.7 mph9.2 kmh 30.24 in1024.0 mb 0.00 in0.0 mm 0.00 in0.0 mm 0.00 in0.0 mm
10:20 AM 79.6°F26.4°C 59.3°F15.2°C 50% 3.1 mph SSW5.0 kmh SSW 7.7 mph12.4 kmh 30.24 in1024.0 mb 0.00 in0.0 mm 0.00 in0.0 mm 0.00 in0.0 mm
10:25 AM 79.6°F26.4°C 59.3°F15.2°C 50% 2.4 mph SSW3.9 kmh SSW 7.7 mph12.4 kmh 30.24 in1024.0 mb 0.00 in0.0 mm 0.00 in0.0 mm 0.00 in0.0 mm
10:30 AM 79.8°F26.6°C 58.9°F14.9°C 49% 1.3 mph SW2.1 kmh SW 4.5 mph7.2 kmh 30.24 in1024.0 mb 0.00 in0.0 mm 0.00 in0.0 mm 0.00 in0.0 mm
10:35 AM 79.8°F26.6°C 58.9°F14.9°C 49% 1.7 mph SW2.7 kmh SW 4.5 mph7.2 kmh 30.24 in1024.0 mb 0.00 in0.0 mm 0.00 in0.0 mm 0.00 in0.0 mm
10:40 AM 80.2°F26.8°C 58.1°F14.5°C 47% 2.9 mph W4.7 kmh W 9.8 mph15.8 kmh 30.24 in1024.0 mb 0.00 in0.0 mm 0.00 in0.0 mm 0.00 in0.0 mm
10:45 AM 80.5°F26.9°C 58.4°F14.7°C 47% 2.4 mph W3.9 kmh W 9.8 mph15.8 kmh 30.24 in1024.0 mb 0.00 in0.0 mm 0.00 in0.0 mm 0.00 in0.0 mm
10:50 AM 80.5°F26.9°C 58.4°F14.7°C 47% 2.0 mph SW3.2 kmh SW 5.4 mph8.7 kmh 30.24 in1024.0 mb 0.00 in0.0 mm 0.00 in0.0 mm 0.00 in0.0 mm
10:55 AM 80.9°F27.2°C 58.8°F14.9°C 47% 3.0 mph SW4.8 kmh SW 5.7 mph9.2 kmh 30.24 in1024.0 mb 0.00 in0.0 mm 0.00 in0.0 mm 0.00 in0.0 mm
11:00 AM 81.1°F27.3°C 58.3°F14.6°C 46% 3.2 mph SW5.1 kmh SW 5.7 mph9.2 kmh 30.24 in1024.0 mb 0.00 in0.0 mm 0.00 in0.0 mm 0.00 in0.0 mm
11:05 AM 81.1°F27.3°C 58.3°F14.6°C 46% 3.3 mph SW5.3 kmh SW 6.2 mph10.0 kmh 30.24 in1024.0 mb 0.00 in0.0 mm 0.00 in0.0 mm 0.00 in0.0 mm
11:10 AM 81.1°F27.3°C 58.3°F14.6°C 46% 3.4 mph WSW5.5 kmh WSW 6.2 mph10.0 kmh 30.24 in1024.0 mb 0.00 in0.0 mm 0.00 in0.0 mm 0.00 in0.0 mm
11:15 AM 81.6°F27.6°C 58.2°F14.6°C 45% 3.7 mph S6.0 kmh S 6.5 mph10.5 kmh 30.24 in1024.0 mb 0.00 in0.0 mm 0.00 in0.0 mm 0.00 in0.0 mm
11:20 AM 82.3°F27.9°C 59.5°F15.3°C 46% 4.3 mph ESE6.9 kmh ESE 6.5 mph10.5 kmh 30.24 in1024.0 mb 0.00 in0.0 mm 0.00 in0.0 mm 0.00 in0.0 mm
11:25 AM 82.7°F28.2°C 59.8°F15.4°C 46% 4.1 mph E6.6 kmh E 6.5 mph10.5 kmh 30.24 in1024.0 mb 0.00 in0.0 mm 0.00 in0.0 mm 0.00 in0.0 mm
11:30 AM 82.8°F28.2°C 59.9°F15.5°C 46% 2.2 mph ENE3.5 kmh ENE 6.2 mph10.0 kmh 30.24 in1024.0 mb 0.00 in0.0 mm 0.00 in0.0 mm 0.00 in0.0 mm
11:35 AM 83.4°F28.6°C 59.8°F15.4°C 45% 2.8 mph ENE4.5 kmh ENE 6.2 mph10.0 kmh 30.24 in1024.0 mb 0.00 in0.0 mm 0.00 in0.0 mm 0.00 in0.0 mm
11:40 AM 83.8°F28.8°C 60.1°F15.6°C 45% 3.9 mph NE6.3 kmh NE 8.0 mph12.9 kmh 30.24 in1024.0 mb 0.00 in0.0 mm 0.00 in0.0 mm 0.00 in0.0 mm
11:45 AM 83.9°F28.8°C 60.3°F15.7°C 45% 3.8 mph NE6.1 kmh NE 8.0 mph12.9 kmh 30.24 in1024.0 mb 0.00 in0.0 mm 0.00 in0.0 mm 0.00 in0.0 mm
11:50 AM 84.5°F29.2°C 60.2°F15.7°C 44% 3.7 mph NE6.0 kmh NE 6.2 mph10.0 kmh 30.24 in1024.0 mb 0.00 in0.0 mm 0.00 in0.0 mm 0.00 in0.0 mm
11:55 AM 84.5°F29.2°C 60.2°F15.7°C 44% 3.6 mph N5.8 kmh N 6.2 mph10.0 kmh 30.21 in1023.0 mb 0.00 in0.0 mm 0.00 in0.0 mm 0.00 in0.0 mm
12:00 PM 84.7°F29.3°C 60.3°F15.7°C 44% 3.6 mph N5.8 kmh N 5.7 mph9.2 kmh 30.21 in1023.0 mb 0.00 in0.0 mm 0.00 in0.0 mm 0.00 in0.0 mm
12:05 PM 84.7°F29.3°C 59.7°F15.4°C 43% 4.5 mph N7.2 kmh N 7.1 mph11.4 kmh 30.21 in1023.0 mb 0.00 in0.0 mm 0.00 in0.0 mm 0.00 in0.0 mm
12:10 PM 84.7°F29.3°C 59.0°F15.0°C 42% 4.8 mph NNW7.7 kmh NNW 7.1 mph11.4 kmh 30.21 in1023.0 mb 0.00 in0.0 mm 0.00 in0.0 mm 0.00 in0.0 mm
12:15 PM 85.0°F29.4°C 59.3°F15.2°C 42% 4.3 mph NW6.9 kmh NW 5.7 mph9.2 kmh 30.21 in1023.0 mb 0.00 in0.0 mm 0.00 in0.0 mm 0.00 in0.0 mm
12:20 PM 85.2°F29.6°C 59.5°F15.3°C 42% 4.3 mph NNW6.9 kmh NNW 7.1 mph11.4 kmh 30.21 in1023.0 mb 0.00 in0.0 mm 0.00 in0.0 mm 0.00 in0.0 mm
12:25 PM 85.7°F29.8°C 60.0°F15.6°C 42% 4.1 mph N6.6 kmh N 7.1 mph11.4 kmh 30.21 in1023.0 mb 0.00 in0.0 mm 0.00 in0.0 mm 0.00 in0.0 mm
12:30 PM 85.7°F29.8°C 60.0°F15.6°C 42% 5.8 mph NNW9.3 kmh NNW 8.3 mph13.4 kmh 30.21 in1023.0 mb 0.00 in0.0 mm 0.00 in0.0 mm 0.00 in0.0 mm
12:35 PM 85.7°F29.8°C 59.3°F15.2°C 41% 5.7 mph NNW9.2 kmh NNW 8.3 mph13.4 kmh 30.21 in1023.0 mb 0.00 in0.0 mm 0.00 in0.0 mm 0.00 in0.0 mm
12:40 PM 85.9°F29.9°C 60.2°F15.7°C 42% 4.7 mph NW7.6 kmh NW 7.1 mph11.4 kmh 30.21 in1023.0 mb 0.00 in0.0 mm 0.00 in0.0 mm 0.00 in0.0 mm
12:45 PM 85.9°F29.9°C 59.5°F15.3°C 41% 5.4 mph NW8.7 kmh NW 8.3 mph13.4 kmh 30.21 in1023.0 mb 0.00 in0.0 mm 0.00 in0.0 mm 0.00 in0.0 mm
12:50 PM 85.9°F29.9°C 59.5°F15.3°C 41% 5.7 mph NW9.2 kmh NW 8.3 mph13.4 kmh 30.21 in1023.0 mb 0.00 in0.0 mm 0.00 in0.0 mm 0.00 in0.0 mm
12:55 PM 86.4°F30.2°C 60.0°F15.6°C 41% 5.4 mph NNW8.7 kmh NNW 7.7 mph12.4 kmh 30.21 in1023.0 mb 0.00 in0.0 mm 0.00 in0.0 mm 0.00 in0.0 mm
01:00 PM 86.3°F30.2°C 59.8°F15.4°C 41% 6.6 mph N10.6 kmh N 9.8 mph15.8 kmh 30.21 in1023.0 mb 0.00 in0.0 mm 0.00 in0.0 mm 0.00 in0.0 mm
01:05 PM 86.1°F30.1°C 58.9°F14.9°C 40% 6.5 mph N10.5 kmh N 9.8 mph15.8 kmh 30.21 in1023.0 mb 0.00 in0.0 mm 0.00 in0.0 mm 0.00 in0.0 mm
01:10 PM 85.9°F29.9°C 58.8°F14.9°C 40% 5.6 mph NNW9.0 kmh NNW 8.6 mph13.8 kmh 30.21 in1023.0 mb 0.00 in0.0 mm 0.00 in0.0 mm 0.00 in0.0 mm
01:15 PM 85.9°F29.9°C 58.8°F14.9°C 40% 5.6 mph NNW9.0 kmh NNW 8.0 mph12.9 kmh 30.21 in1023.0 mb 0.00 in0.0 mm 0.00 in0.0 mm 0.00 in0.0 mm
01:20 PM 85.9°F29.9°C 58.8°F14.9°C 40% 5.2 mph NW8.4 kmh NW 8.0 mph12.9 kmh 30.21 in1023.0 mb 0.00 in0.0 mm 0.00 in0.0 mm 0.00 in0.0 mm
01:25 PM 86.1°F30.1°C 58.9°F14.9°C 40% 5.3 mph NW8.5 kmh NW 8.3 mph13.4 kmh 30.18 in1022.0 mb 0.00 in0.0 mm 0.00 in0.0 mm 0.00 in0.0 mm
01:30 PM 86.4°F30.2°C 59.3°F15.2°C 40% 5.8 mph NW9.3 kmh NW 8.3 mph13.4 kmh 30.18 in1022.0 mb 0.00 in0.0 mm 0.00 in0.0 mm 0.00 in0.0 mm
01:35 PM 86.4°F30.2°C 59.3°F15.2°C 40% 5.5 mph NW8.9 kmh NW 8.3 mph13.4 kmh 30.18 in1022.0 mb 0.00 in0.0 mm 0.00 in0.0 mm 0.00 in0.0 mm
01:40 PM 86.8°F30.4°C 58.9°F14.9°C 39% 5.9 mph NW9.5 kmh NW 8.0 mph12.9 kmh 30.18 in1022.0 mb 0.00 in0.0 mm 0.00 in0.0 mm 0.00 in0.0 mm
01:45 PM 86.6°F30.3°C 58.7°F14.8°C 39% 6.7 mph WNW10.8 kmh WNW 9.8 mph15.8 kmh 30.18 in1022.0 mb 0.00 in0.0 mm 0.00 in0.0 mm 0.00 in0.0 mm
01:50 PM 86.8°F30.4°C 59.6°F15.3°C 40% 5.8 mph NW9.3 kmh NW 9.8 mph15.8 kmh 30.18 in1022.0 mb 0.00 in0.0 mm 0.00 in0.0 mm 0.00 in0.0 mm
01:55 PM 86.4°F30.2°C 59.3°F15.2°C 40% 6.0 mph NNW9.7 kmh NNW 9.5 mph15.3 kmh 30.18 in1022.0 mb 0.00 in0.0 mm 0.00 in0.0 mm 0.00 in0.0 mm
02:00 PM 86.8°F30.4°C 58.9°F14.9°C 39% 7.5 mph N12.1 kmh N 10.4 mph16.7 kmh 30.18 in1022.0 mb 0.00 in0.0 mm 0.00 in0.0 mm 0.00 in0.0 mm
02:05 PM 87.0°F30.6°C 59.0°F15.0°C 39% 7.0 mph N11.3 kmh N 10.4 mph16.7 kmh 30.18 in1022.0 mb 0.00 in0.0 mm 0.00 in0.0 mm 0.00 in0.0 mm
02:10 PM 86.8°F30.4°C 58.9°F14.9°C 39% 6.8 mph N10.9 kmh N 9.2 mph14.8 kmh 30.18 in1022.0 mb 0.00 in0.0 mm 0.00 in0.0 mm 0.00 in0.0 mm
02:15 PM 86.4°F30.2°C 58.6°F14.8°C 39% 7.3 mph N11.7 kmh N 9.5 mph15.3 kmh 30.18 in1022.0 mb 0.00 in0.0 mm 0.00 in0.0 mm 0.00 in0.0 mm
02:20 PM 86.4°F30.2°C 58.6°F14.8°C 39% 7.5 mph NW12.1 kmh NW 9.5 mph15.3 kmh 30.18 in1022.0 mb 0.00 in0.0 mm 0.00 in0.0 mm 0.00 in0.0 mm
02:25 PM 86.6°F30.3°C 58.7°F14.8°C 39% 7.4 mph NW11.9 kmh NW 9.5 mph15.3 kmh 30.18 in1022.0 mb 0.00 in0.0 mm 0.00 in0.0 mm 0.00 in0.0 mm
02:30 PM 86.8°F30.4°C 58.9°F14.9°C 39% 6.9 mph N11.1 kmh N 9.5 mph15.3 kmh 30.18 in1022.0 mb 0.00 in0.0 mm 0.00 in0.0 mm 0.00 in0.0 mm
02:35 PM 87.0°F30.6°C 59.0°F15.0°C 39% 6.5 mph N10.5 kmh N 9.5 mph15.3 kmh 30.18 in1022.0 mb 0.00 in0.0 mm 0.00 in0.0 mm 0.00 in0.0 mm
02:40 PM 87.2°F30.7°C 59.2°F15.1°C 39% 6.3 mph N10.1 kmh N 8.6 mph13.8 kmh 30.18 in1022.0 mb 0.00 in0.0 mm 0.00 in0.0 mm 0.00 in0.0 mm
02:45 PM 87.3°F30.7°C 59.4°F15.2°C 39% 5.4 mph NNW8.7 kmh NNW 8.6 mph13.8 kmh 30.18 in1022.0 mb 0.00 in0.0 mm 0.00 in0.0 mm 0.00 in0.0 mm
02:50 PM 87.7°F30.9°C 59.7°F15.4°C 39% 5.5 mph NW8.9 kmh NW 8.6 mph13.8 kmh 30.18 in1022.0 mb 0.00 in0.0 mm 0.00 in0.0 mm 0.00 in0.0 mm
02:55 PM 87.7°F30.9°C 59.7°F15.4°C 39% 6.0 mph NW9.7 kmh NW 8.3 mph13.4 kmh 30.18 in1022.0 mb 0.00 in0.0 mm 0.00 in0.0 mm 0.00 in0.0 mm
03:00 PM 87.7°F30.9°C 59.7°F15.4°C 39% 6.0 mph NW9.7 kmh NW 10.1 mph16.3 kmh 30.18 in1022.0 mb 0.00 in0.0 mm 0.00 in0.0 mm 0.00 in0.0 mm
03:05 PM 87.9°F31.1°C 59.8°F15.4°C 39% 6.0 mph NW9.7 kmh NW 10.1 mph16.3 kmh 30.18 in1022.0 mb 0.00 in0.0 mm 0.00 in0.0 mm 0.00 in0.0 mm
03:10 PM 87.5°F30.8°C 59.5°F15.3°C 39% 5.3 mph NW8.5 kmh NW 8.0 mph12.9 kmh 30.18 in1022.0 mb 0.00 in0.0 mm 0.00 in0.0 mm 0.00 in0.0 mm
03:15 PM 87.5°F30.8°C 59.5°F15.3°C 39% 5.6 mph NNW9.0 kmh NNW 7.4 mph11.9 kmh 30.18 in1022.0 mb 0.00 in0.0 mm 0.00 in0.0 mm 0.00 in0.0 mm
03:20 PM 87.5°F30.8°C 59.5°F15.3°C 39% 5.7 mph NNW9.2 kmh NNW 7.4 mph11.9 kmh 30.18 in1022.0 mb 0.00 in0.0 mm 0.00 in0.0 mm 0.00 in0.0 mm
03:25 PM 87.5°F30.8°C 59.5°F15.3°C 39% 4.7 mph NNW7.6 kmh NNW 6.5 mph10.5 kmh 30.18 in1022.0 mb 0.00 in0.0 mm 0.00 in0.0 mm 0.00 in0.0 mm
03:30 PM 87.9°F31.1°C 59.8°F15.4°C 39% 3.7 mph NW6.0 kmh NW 5.4 mph8.7 kmh 30.18 in1022.0 mb 0.00 in0.0 mm 0.00 in0.0 mm 0.00 in0.0 mm
03:35 PM 88.1°F31.2°C 60.0°F15.6°C 39% 3.7 mph NNW6.0 kmh NNW 6.2 mph10.0 kmh 30.18 in1022.0 mb 0.00 in0.0 mm 0.00 in0.0 mm 0.00 in0.0 mm
03:40 PM 88.4°F31.3°C 59.6°F15.3°C 38% 5.1 mph NNW8.2 kmh NNW 7.7 mph12.4 kmh 30.18 in1022.0 mb 0.00 in0.0 mm 0.00 in0.0 mm 0.00 in0.0 mm
03:45 PM 88.1°F31.2°C 60.0°F15.6°C 39% 5.3 mph NNW8.5 kmh NNW 7.7 mph12.4 kmh 30.18 in1022.0 mb 0.00 in0.0 mm 0.00 in0.0 mm 0.00 in0.0 mm
03:50 PM 88.1°F31.2°C 60.0°F15.6°C 39% 4.5 mph N7.2 kmh N 8.0 mph12.9 kmh 30.18 in1022.0 mb 0.00 in0.0 mm 0.00 in0.0 mm 0.00 in0.0 mm
03:55 PM 88.1°F31.2°C 60.0°F15.6°C 39% 4.4 mph N7.1 kmh N 8.0 mph12.9 kmh 30.18 in1022.0 mb 0.00 in0.0 mm 0.00 in0.0 mm 0.00 in0.0 mm
04:00 PM 88.3°F31.3°C 60.2°F15.7°C 39% 3.9 mph N6.3 kmh N 6.5 mph10.5 kmh 30.18 in1022.0 mb 0.00 in0.0 mm 0.00 in0.0 mm 0.00 in0.0 mm
04:05 PM 88.3°F31.3°C 59.4°F15.2°C 38% 4.1 mph N6.6 kmh N 7.4 mph11.9 kmh 30.18 in1022.0 mb 0.00 in0.0 mm 0.00 in0.0 mm 0.00 in0.0 mm
04:10 PM 88.3°F31.3°C 59.4°F15.2°C 38% 6.0 mph N9.7 kmh N 10.4 mph16.7 kmh 30.18 in1022.0 mb 0.00 in0.0 mm 0.00 in0.0 mm 0.00 in0.0 mm
04:15 PM 88.3°F31.3°C 59.4°F15.2°C 38% 6.0 mph N9.7 kmh N 10.4 mph16.7 kmh 30.18 in1022.0 mb 0.00 in0.0 mm 0.00 in0.0 mm 0.00 in0.0 mm
04:20 PM 88.1°F31.2°C 59.3°F15.2°C 38% 5.5 mph N8.9 kmh N 8.6 mph13.8 kmh 30.18 in1022.0 mb 0.00 in0.0 mm 0.00 in0.0 mm 0.00 in0.0 mm
04:25 PM 88.1°F31.2°C 59.3°F15.2°C 38% 4.3 mph NNE6.9 kmh NNE 8.6 mph13.8 kmh 30.18 in1022.0 mb 0.00 in0.0 mm 0.00 in0.0 mm 0.00 in0.0 mm
04:30 PM 87.9°F31.1°C 59.1°F15.1°C 38% 3.9 mph NE6.3 kmh NE 5.7 mph9.2 kmh 30.18 in1022.0 mb 0.00 in0.0 mm 0.00 in0.0 mm 0.00 in0.0 mm
04:35 PM 87.9°F31.1°C 59.1°F15.1°C 38% 4.4 mph NE7.1 kmh NE 5.7 mph9.2 kmh 30.18 in1022.0 mb 0.00 in0.0 mm 0.00 in0.0 mm 0.00 in0.0 mm
04:40 PM 87.7°F30.9°C 59.0°F15.0°C 38% 5.3 mph NNE8.5 kmh NNE 7.4 mph11.9 kmh 30.18 in1022.0 mb 0.00 in0.0 mm 0.00 in0.0 mm 0.00 in0.0 mm
04:45 PM 87.7°F30.9°C 59.0°F15.0°C 38% 5.4 mph N8.7 kmh N 7.4 mph11.9 kmh 30.18 in1022.0 mb 0.00 in0.0 mm 0.00 in0.0 mm 0.00 in0.0 mm
04:50 PM 87.5°F30.8°C 58.8°F14.9°C 38% 3.8 mph N6.1 kmh N 6.5 mph10.5 kmh 30.18 in1022.0 mb 0.00 in0.0 mm 0.00 in0.0 mm 0.00 in0.0 mm
04:55 PM 87.7°F30.9°C 59.0°F15.0°C 38% 3.4 mph NE5.5 kmh NE 5.7 mph9.2 kmh 30.18 in1022.0 mb 0.00 in0.0 mm 0.00 in0.0 mm 0.00 in0.0 mm
05:00 PM 87.3°F30.7°C 58.6°F14.8°C 38% 3.4 mph NE5.5 kmh NE 5.7 mph9.2 kmh 30.18 in1022.0 mb 0.00 in0.0 mm 0.00 in0.0 mm 0.00 in0.0 mm
05:05 PM 87.5°F30.8°C 58.8°F14.9°C 38% 3.4 mph NNE5.5 kmh NNE 5.4 mph8.7 kmh 30.18 in1022.0 mb 0.00 in0.0 mm 0.00 in0.0 mm 0.00 in0.0 mm
05:10 PM 87.3°F30.7°C 58.6°F14.8°C 38% 3.2 mph NNW5.1 kmh NNW 5.4 mph8.7 kmh 30.18 in1022.0 mb 0.00 in0.0 mm 0.00 in0.0 mm 0.00 in0.0 mm
05:15 PM 87.2°F30.7°C 58.5°F14.7°C 38% 2.4 mph NNW3.9 kmh NNW 5.1 mph8.2 kmh 30.18 in1022.0 mb 0.00 in0.0 mm 0.00 in0.0 mm 0.00 in0.0 mm
05:20 PM 87.2°F30.7°C 58.5°F14.7°C 38% 2.5 mph SW4.0 kmh SW 5.1 mph8.2 kmh 30.18 in1022.0 mb 0.00 in0.0 mm 0.00 in0.0 mm 0.00 in0.0 mm
05:25 PM 87.0°F30.6°C 58.3°F14.6°C 38% 2.4 mph SW3.9 kmh SW 5.7 mph9.2 kmh 30.18 in1022.0 mb 0.00 in0.0 mm 0.00 in0.0 mm 0.00 in0.0 mm
05:30 PM 87.2°F30.7°C 58.5°F14.7°C 38% 2.5 mph N4.0 kmh N 5.7 mph9.2 kmh 30.18 in1022.0 mb 0.00 in0.0 mm 0.00 in0.0 mm 0.00 in0.0 mm
05:35 PM 87.0°F30.6°C 58.3°F14.6°C 38% 4.3 mph NNE6.9 kmh NNE 7.1 mph11.4 kmh 30.18 in1022.0 mb 0.00 in0.0 mm 0.00 in0.0 mm 0.00 in0.0 mm
05:40 PM 86.4°F30.2°C 58.6°F14.8°C 39% 5.4 mph NE8.7 kmh NE 9.2 mph14.8 kmh 30.18 in1022.0 mb 0.00 in0.0 mm 0.00 in0.0 mm 0.00 in0.0 mm
05:45 PM 85.7°F29.8°C 57.9°F14.4°C 39% 5.8 mph NE9.3 kmh NE 9.2 mph14.8 kmh 30.18 in1022.0 mb 0.00 in0.0 mm 0.00 in0.0 mm 0.00 in0.0 mm
05:50 PM 85.4°F29.7°C 57.6°F14.2°C 39% 4.3 mph NE6.9 kmh NE 7.1 mph11.4 kmh 30.18 in1022.0 mb 0.00 in0.0 mm 0.00 in0.0 mm 0.00 in0.0 mm
05:55 PM 85.4°F29.7°C 57.6°F14.2°C 39% 4.0 mph NE6.4 kmh NE 6.5 mph10.5 kmh 30.18 in1022.0 mb 0.00 in0.0 mm 0.00 in0.0 mm 0.00 in0.0 mm
06:00 PM 85.6°F29.8°C 57.8°F14.3°C 39% 5.0 mph NNE8.0 kmh NNE 7.4 mph11.9 kmh 30.18 in1022.0 mb 0.00 in0.0 mm 0.00 in0.0 mm 0.00 in0.0 mm
06:05 PM 85.6°F29.8°C 57.8°F14.3°C 39% 5.2 mph N8.4 kmh N 7.7 mph12.4 kmh 30.18 in1022.0 mb 0.00 in0.0 mm 0.00 in0.0 mm 0.00 in0.0 mm
06:10 PM 85.4°F29.7°C 57.6°F14.2°C 39% 4.7 mph N7.6 kmh N 7.7 mph12.4 kmh 30.18 in1022.0 mb 0.00 in0.0 mm 0.00 in0.0 mm 0.00 in0.0 mm
06:15 PM 85.2°F29.6°C 57.4°F14.1°C 39% 4.4 mph N7.1 kmh N 5.7 mph9.2 kmh 30.18 in1022.0 mb 0.00 in0.0 mm 0.00 in0.0 mm 0.00 in0.0 mm
06:20 PM 85.0°F29.4°C 57.3°F14.1°C 39% 3.9 mph NW6.3 kmh NW 5.7 mph9.2 kmh 30.18 in1022.0 mb 0.00 in0.0 mm 0.00 in0.0 mm 0.00 in0.0 mm
06:25 PM 84.8°F29.3°C 57.1°F13.9°C 39% 3.6 mph WNW5.8 kmh WNW 5.4 mph8.7 kmh 30.18 in1022.0 mb 0.00 in0.0 mm 0.00 in0.0 mm 0.00 in0.0 mm
06:30 PM 84.8°F29.3°C 57.1°F13.9°C 39% 3.1 mph WNW5.0 kmh WNW 5.4 mph8.7 kmh 30.18 in1022.0 mb 0.00 in0.0 mm 0.00 in0.0 mm 0.00 in0.0 mm
06:35 PM 84.7°F29.3°C 57.7°F14.3°C 40% 2.3 mph WNW3.7 kmh WNW 6.0 mph9.7 kmh 30.18 in1022.0 mb 0.00 in0.0 mm 0.00 in0.0 mm 0.00 in0.0 mm
06:40 PM 84.5°F29.2°C 57.5°F14.2°C 40% 3.6 mph W5.8 kmh W 6.5 mph10.5 kmh 30.15 in1021.0 mb 0.00 in0.0 mm 0.00 in0.0 mm 0.00 in0.0 mm
06:45 PM 83.6°F28.7°C 56.7°F13.7°C 40% 5.0 mph WSW8.0 kmh WSW 6.5 mph10.5 kmh 30.15 in1021.0 mb 0.00 in0.0 mm 0.00 in0.0 mm 0.00 in0.0 mm
06:50 PM 82.5°F28.1°C 56.4°F13.6°C 41% 4.7 mph WSW7.6 kmh WSW 6.2 mph10.0 kmh 30.15 in1021.0 mb 0.00 in0.0 mm 0.00 in0.0 mm 0.00 in0.0 mm
06:55 PM 82.5°F28.1°C 56.4°F13.6°C 41% 4.6 mph WSW7.4 kmh WSW 5.1 mph8.2 kmh 30.18 in1022.0 mb 0.00 in0.0 mm 0.00 in0.0 mm 0.00 in0.0 mm
07:00 PM 80.3°F26.8°C 55.1°F12.8°C 42% 4.5 mph WSW7.2 kmh WSW 5.7 mph9.2 kmh 30.18 in1022.0 mb 0.00 in0.0 mm 0.00 in0.0 mm 0.00 in0.0 mm
07:05 PM 79.3°F26.3°C 54.8°F12.7°C 43% 4.0 mph WSW6.4 kmh WSW 5.7 mph9.2 kmh 30.18 in1022.0 mb 0.00 in0.0 mm 0.00 in0.0 mm 0.00 in0.0 mm
07:10 PM 78.9°F26.1°C 54.5°F12.5°C 43% 4.5 mph W7.2 kmh W 5.7 mph9.2 kmh 30.15 in1021.0 mb 0.00 in0.0 mm 0.00 in0.0 mm 0.00 in0.0 mm
07:15 PM 77.4°F25.2°C 53.2°F11.8°C 43% 4.9 mph WSW7.9 kmh WSW 5.7 mph9.2 kmh 30.15 in1021.0 mb 0.00 in0.0 mm 0.00 in0.0 mm 0.00 in0.0 mm
07:20 PM 76.9°F24.9°C 53.3°F11.8°C 44% 4.3 mph WSW6.9 kmh WSW 5.4 mph8.7 kmh 30.15 in1021.0 mb 0.00 in0.0 mm 0.00 in0.0 mm 0.00 in0.0 mm
07:25 PM 75.8°F24.3°C 52.4°F11.3°C 44% 4.0 mph WSW6.4 kmh WSW 5.7 mph9.2 kmh 30.15 in1021.0 mb 0.00 in0.0 mm 0.00 in0.0 mm 0.00 in0.0 mm
07:30 PM 74.9°F23.8°C 52.2°F11.2°C 45% 4.6 mph WSW7.4 kmh WSW 6.5 mph10.5 kmh 30.15 in1021.0 mb 0.00 in0.0 mm 0.00 in0.0 mm 0.00 in0.0 mm
07:35 PM 74.6°F23.7°C 51.8°F11.0°C 45% 4.6 mph WSW7.4 kmh WSW 6.5 mph10.5 kmh 30.15 in1021.0 mb 0.00 in0.0 mm 0.00 in0.0 mm 0.00 in0.0 mm
07:40 PM 73.5°F23.1°C 51.4°F10.8°C 46% 4.3 mph WSW6.9 kmh WSW 6.5 mph10.5 kmh 30.18 in1022.0 mb 0.00 in0.0 mm 0.00 in0.0 mm 0.00 in0.0 mm
07:45 PM 73.1°F22.8°C 51.1°F10.6°C 46% 3.6 mph WSW5.8 kmh WSW 5.1 mph8.2 kmh 30.18 in1022.0 mb 0.00 in0.0 mm 0.00 in0.0 mm 0.00 in0.0 mm
07:50 PM 72.2°F22.3°C 50.3°F10.2°C 46% 2.4 mph WSW3.9 kmh WSW 4.2 mph6.8 kmh 30.18 in1022.0 mb 0.00 in0.0 mm 0.00 in0.0 mm 0.00 in0.0 mm
07:55 PM 72.2°F22.3°C 50.3°F10.2°C 46% 2.8 mph WSW4.5 kmh WSW 5.7 mph9.2 kmh 30.15 in1021.0 mb 0.00 in0.0 mm 0.00 in0.0 mm 0.00 in0.0 mm
08:00 PM 71.3°F21.8°C 50.1°F10.1°C 47% 3.5 mph WSW5.6 kmh WSW 5.7 mph9.2 kmh 30.15 in1021.0 mb 0.00 in0.0 mm 0.00 in0.0 mm 0.00 in0.0 mm
08:05 PM 71.3°F21.8°C 50.1°F10.1°C 47% 3.1 mph WSW5.0 kmh WSW 5.7 mph9.2 kmh 30.15 in1021.0 mb 0.00 in0.0 mm 0.00 in0.0 mm 0.00 in0.0 mm
08:10 PM 70.8°F21.6°C 50.1°F10.1°C 48% 2.0 mph WSW3.2 kmh WSW 3.9 mph6.3 kmh 30.15 in1021.0 mb 0.00 in0.0 mm 0.00 in0.0 mm 0.00 in0.0 mm
08:15 PM 70.6°F21.4°C 50.0°F10.0°C 48% 2.0 mph WSW3.2 kmh WSW 3.6 mph5.8 kmh 30.15 in1021.0 mb 0.00 in0.0 mm 0.00 in0.0 mm 0.00 in0.0 mm
08:20 PM 70.3°F21.3°C 50.2°F10.1°C 49% 2.1 mph WSW3.4 kmh WSW 3.9 mph6.3 kmh 30.15 in1021.0 mb 0.00 in0.0 mm 0.00 in0.0 mm 0.00 in0.0 mm
08:25 PM 70.1°F21.2°C 50.6°F10.3°C 50% 1.7 mph WSW2.7 kmh WSW 3.9 mph6.3 kmh 30.15 in1021.0 mb 0.00 in0.0 mm 0.00 in0.0 mm 0.00 in0.0 mm
08:30 PM 69.9°F21.1°C 50.4°F10.2°C 50% 1.5 mph SW2.4 kmh SW 2.7 mph4.3 kmh 30.15 in1021.0 mb 0.00 in0.0 mm 0.00 in0.0 mm 0.00 in0.0 mm
08:35 PM 69.7°F20.9°C 50.2°F10.1°C 50% 0.7 mph WSW1.1 kmh WSW 2.7 mph4.3 kmh 30.15 in1021.0 mb 0.00 in0.0 mm 0.00 in0.0 mm 0.00 in0.0 mm
08:40 PM 69.7°F20.9°C 50.2°F10.1°C 50% 0.8 mph W1.3 kmh W 2.7 mph4.3 kmh 30.15 in1021.0 mb 0.00 in0.0 mm 0.00 in0.0 mm 0.00 in0.0 mm
08:45 PM 69.3°F20.7°C 50.4°F10.2°C 51% 1.7 mph WSW2.7 kmh WSW 3.0 mph4.8 kmh 30.15 in1021.0 mb 0.00 in0.0 mm 0.00 in0.0 mm 0.00 in0.0 mm
08:50 PM 69.2°F20.7°C 50.8°F10.4°C 52% 1.6 mph WSW2.6 kmh WSW 3.0 mph4.8 kmh 30.15 in1021.0 mb 0.00 in0.0 mm 0.00 in0.0 mm 0.00 in0.0 mm
08:55 PM 69.0°F20.6°C 50.6°F10.3°C 52% 0.9 mph WSW1.4 kmh WSW 2.7 mph4.3 kmh 30.15 in1021.0 mb 0.00 in0.0 mm 0.00 in0.0 mm 0.00 in0.0 mm
09:00 PM 69.0°F20.6°C 51.1°F10.6°C 53% 0.3 mph WSW0.5 kmh WSW 1.8 mph2.9 kmh 30.15 in1021.0 mb 0.00 in0.0 mm 0.00 in0.0 mm 0.00 in0.0 mm
09:05 PM 68.8°F20.4°C 51.0°F10.6°C 53% 1.2 mph WSW1.9 kmh WSW 3.0 mph4.8 kmh 30.15 in1021.0 mb 0.00 in0.0 mm 0.00 in0.0 mm 0.00 in0.0 mm
09:10 PM 68.6°F20.3°C 50.8°F10.4°C 53% 1.7 mph WSW2.7 kmh WSW 3.0 mph4.8 kmh 30.18 in1022.0 mb 0.00 in0.0 mm 0.00 in0.0 mm 0.00 in0.0 mm
09:15 PM 68.6°F20.3°C 50.8°F10.4°C 53% 1.4 mph WSW2.3 kmh WSW 2.7 mph4.3 kmh 30.18 in1022.0 mb 0.00 in0.0 mm 0.00 in0.0 mm 0.00 in0.0 mm
09:20 PM 68.6°F20.3°C 51.3°F10.7°C 54% 0.8 mph WSW1.3 kmh WSW 2.7 mph4.3 kmh 30.18 in1022.0 mb 0.00 in0.0 mm 0.00 in0.0 mm 0.00 in0.0 mm
09:25 PM 68.4°F20.2°C 51.6°F10.9°C 55% 0.4 mph SW0.6 kmh SW 1.5 mph2.4 kmh 30.18 in1022.0 mb 0.00 in0.0 mm 0.00 in0.0 mm 0.00 in0.0 mm
09:30 PM 68.4°F20.2°C 51.6°F10.9°C 55% 0.3 mph SW0.5 kmh SW 1.5 mph2.4 kmh 30.18 in1022.0 mb 0.00 in0.0 mm 0.00 in0.0 mm 0.00 in0.0 mm
09:35 PM 68.3°F20.2°C 51.5°F10.8°C 55% 0.5 mph WSW0.8 kmh WSW 2.7 mph4.3 kmh 30.18 in1022.0 mb 0.00 in0.0 mm 0.00 in0.0 mm 0.00 in0.0 mm
09:40 PM 68.3°F20.2°C 52.0°F11.1°C 56% 0.7 mph WSW1.1 kmh WSW 2.7 mph4.3 kmh 30.18 in1022.0 mb 0.00 in0.0 mm 0.00 in0.0 mm 0.00 in0.0 mm
09:45 PM 68.1°F20.1°C 51.8°F11.0°C 56% 0.2 mph WSW0.3 kmh WSW 1.8 mph2.9 kmh 30.18 in1022.0 mb 0.00 in0.0 mm 0.00 in0.0 mm 0.00 in0.0 mm
09:50 PM 67.9°F19.9°C 51.6°F10.9°C 56% Calm Calm -- 30.18 in1022.0 mb 0.00 in0.0 mm 0.00 in0.0 mm 0.00 in0.0 mm
09:55 PM 67.7°F19.8°C 51.9°F11.1°C 57% Calm Calm -- 30.18 in1022.0 mb 0.00 in0.0 mm 0.00 in0.0 mm 0.00 in0.0 mm
10:00 PM 67.4°F19.7°C 52.1°F11.2°C 58% Calm Calm -- 30.18 in1022.0 mb 0.00 in0.0 mm 0.00 in0.0 mm 0.00 in0.0 mm
10:05 PM 67.4°F19.7°C 52.1°F11.2°C 58% 0.1 mph WSW0.2 kmh WSW 1.2 mph1.9 kmh 30.18 in1022.0 mb 0.00 in0.0 mm 0.00 in0.0 mm 0.00 in0.0 mm
10:10 PM 67.2°F19.6°C 52.4°F11.3°C 59% 0.1 mph WSW0.2 kmh WSW 1.2 mph1.9 kmh 30.15 in1021.0 mb 0.00 in0.0 mm 0.00 in0.0 mm 0.00 in0.0 mm
10:15 PM 66.8°F19.3°C 52.0°F11.1°C 59% 0.4 mph W0.6 kmh W 2.7 mph4.3 kmh 30.15 in1021.0 mb 0.00 in0.0 mm 0.00 in0.0 mm 0.00 in0.0 mm
10:20 PM 66.8°F19.3°C 52.0°F11.1°C 59% 0.8 mph W1.3 kmh W 2.7 mph4.3 kmh 30.15 in1021.0 mb 0.00 in0.0 mm 0.00 in0.0 mm 0.00 in0.0 mm
10:25 PM 66.7°F19.3°C 52.3°F11.3°C 60% 1.4 mph WSW2.3 kmh WSW 3.9 mph6.3 kmh 30.15 in1021.0 mb 0.00 in0.0 mm 0.00 in0.0 mm 0.00 in0.0 mm
10:30 PM 66.5°F19.2°C 52.2°F11.2°C 60% 2.0 mph WSW3.2 kmh WSW 3.9 mph6.3 kmh 30.15 in1021.0 mb 0.00 in0.0 mm 0.00 in0.0 mm 0.00 in0.0 mm
10:35 PM 66.5°F19.2°C 52.2°F11.2°C 60% 1.7 mph WSW2.7 kmh WSW 3.0 mph4.8 kmh 30.15 in1021.0 mb 0.00 in0.0 mm 0.00 in0.0 mm 0.00 in0.0 mm
10:40 PM 66.3°F19.1°C 52.0°F11.1°C 60% 1.5 mph WSW2.4 kmh WSW 3.6 mph5.8 kmh 30.18 in1022.0 mb 0.00 in0.0 mm 0.00 in0.0 mm 0.00 in0.0 mm
10:45 PM 66.1°F18.9°C 51.8°F11.0°C 60% 1.2 mph W1.9 kmh W 3.6 mph5.8 kmh 30.18 in1022.0 mb 0.00 in0.0 mm 0.00 in0.0 mm 0.00 in0.0 mm
10:50 PM 66.1°F18.9°C 52.3°F11.3°C 61% 1.6 mph W2.6 kmh W 3.6 mph5.8 kmh 30.18 in1022.0 mb 0.00 in0.0 mm 0.00 in0.0 mm 0.00 in0.0 mm
10:55 PM 66.1°F18.9°C 52.3°F11.3°C 61% 2.3 mph W3.7 kmh W 3.3 mph5.3 kmh 30.15 in1021.0 mb 0.00 in0.0 mm 0.00 in0.0 mm 0.00 in0.0 mm
11:00 PM 66.1°F18.9°C 52.3°F11.3°C 61% 2.4 mph W3.9 kmh W 3.3 mph5.3 kmh 30.15 in1021.0 mb 0.00 in0.0 mm 0.00 in0.0 mm 0.00 in0.0 mm
11:05 PM 66.1°F18.9°C 52.3°F11.3°C 61% 2.7 mph W4.3 kmh W 4.2 mph6.8 kmh 30.15 in1021.0 mb 0.00 in0.0 mm 0.00 in0.0 mm 0.00 in0.0 mm
11:10 PM 65.9°F18.8°C 52.1°F11.2°C 61% 3.2 mph W5.1 kmh W 4.2 mph6.8 kmh 30.15 in1021.0 mb 0.00 in0.0 mm 0.00 in0.0 mm 0.00 in0.0 mm
11:15 PM 66.1°F18.9°C 52.3°F11.3°C 61% 3.4 mph W5.5 kmh W 4.8 mph7.7 kmh 30.15 in1021.0 mb 0.00 in0.0 mm 0.00 in0.0 mm 0.00 in0.0 mm
11:20 PM 66.1°F18.9°C 52.3°F11.3°C 61% 3.3 mph W5.3 kmh W 4.8 mph7.7 kmh 30.15 in1021.0 mb 0.00 in0.0 mm 0.00 in0.0 mm 0.00 in0.0 mm
11:25 PM 66.1°F18.9°C 52.3°F11.3°C 61% 2.6 mph WSW4.2 kmh WSW 4.5 mph7.2 kmh 30.15 in1021.0 mb 0.00 in0.0 mm 0.00 in0.0 mm 0.00 in0.0 mm
11:30 PM 66.1°F18.9°C 52.3°F11.3°C 61% 2.3 mph W3.7 kmh W 3.3 mph5.3 kmh 30.15 in1021.0 mb 0.00 in0.0 mm 0.00 in0.0 mm 0.00 in0.0 mm
11:35 PM 66.1°F18.9°C 52.3°F11.3°C 61% 2.7 mph W4.3 kmh W 4.2 mph6.8 kmh 30.15 in1021.0 mb 0.00 in0.0 mm 0.00 in0.0 mm 0.00 in0.0 mm
11:40 PM 66.1°F18.9°C 52.7°F11.5°C 62% 3.3 mph W5.3 kmh W 5.7 mph9.2 kmh 30.15 in1021.0 mb 0.00 in0.0 mm 0.00 in0.0 mm 0.00 in0.0 mm
11:45 PM 66.3°F19.1°C 52.9°F11.6°C 62% 3.5 mph W5.6 kmh W 5.7 mph9.2 kmh 30.15 in1021.0 mb 0.00 in0.0 mm 0.00 in0.0 mm 0.00 in0.0 mm
11:50 PM 66.1°F18.9°C 52.7°F11.5°C 62% 2.7 mph W4.3 kmh W 4.5 mph7.2 kmh 30.15 in1021.0 mb 0.00 in0.0 mm 0.00 in0.0 mm 0.00 in0.0 mm
11:55 PM 66.1°F18.9°C 52.7°F11.5°C 62% 1.7 mph WNW2.7 kmh WNW 3.9 mph6.3 kmh 30.15 in1021.0 mb 0.00 in0.0 mm 0.00 in0.0 mm 0.00 in0.0 mm